Waring, Texas
Current Conditions -  °F | °C
As of 12:55 PM on Wednesday 26 Nov 2014 (Local Time) from KERV Reporting Station
Clear Clear  
Wind Chill: 73°   Ceiling: Unl
Heat Index: 73°   Visibility: 10mi
Dew Point: 18°   Wind: 9mph
Humidity: 13%   Direction: 280°W
Pressure: 30.19"   Gusts: 17mph
Location:  29.95°N, 98.8°W
Report Text: KERV 261855Z AUTO 28008G15KT 250V310 10SM CLR 23/M08 A3019 RMK AO2 T02251077
Loading
Personal Weather Stations






























Interactive Weather Map New forecast layout! Learn more

10-Day Weather Forecast

Advertisements
Track Severe Weather on mobile